createdAt,value
2022-11-29T00:01:26.222Z,16.90
2022-11-29T00:03:54.601Z,19.65
2022-11-29T00:06:27.136Z,17.27
2022-11-29T00:08:56.216Z,20.88
2022-11-29T00:11:45.432Z,20.13
2022-11-29T00:14:15.757Z,23.33
2022-11-29T00:16:43.213Z,23.83
2022-11-29T00:19:12.490Z,21.60
2022-11-29T00:21:39.808Z,22.42
2022-11-29T00:24:07.571Z,23.13
2022-11-29T00:26:36.999Z,22.67
2022-11-29T00:29:04.906Z,21.70
2022-11-29T00:31:33.735Z,22.25
2022-11-29T00:34:03.645Z,21.85
2022-11-29T00:36:31.197Z,22.35
2022-11-29T00:38:58.660Z,20.48
2022-11-29T00:41:25.976Z,20.45
2022-11-29T00:43:53.706Z,19.50
2022-11-29T00:46:21.131Z,18.15
2022-11-29T00:48:48.447Z,17.40
2022-11-29T00:51:15.695Z,17.50
2022-11-29T00:53:42.944Z,17.48
2022-11-29T00:56:10.544Z,16.40
2022-11-29T00:58:37.974Z,17.80
2022-11-29T01:01:06.056Z,16.52
2022-11-29T01:03:33.955Z,19.65
2022-11-29T01:06:07.104Z,17.70
2022-11-29T01:08:34.643Z,17.67
2022-11-29T01:11:23.567Z,17.52
2022-11-29T01:13:55.759Z,17.88
2022-11-29T01:16:23.679Z,18.10
2022-11-29T01:18:51.286Z,17.15
2022-11-29T01:21:21.277Z,19.17
2022-11-29T01:23:52.060Z,17.95
2022-11-29T01:26:25.396Z,19.40
2022-11-29T01:28:55.052Z,19.23
2022-11-29T01:31:26.116Z,17.48
2022-11-29T01:33:54.950Z,19.00
2022-11-29T01:36:22.337Z,20.02
2022-11-29T01:38:49.583Z,20.63
2022-11-29T01:41:23.515Z,19.52
2022-11-29T01:43:53.515Z,20.13
2022-11-29T01:46:20.833Z,18.90
2022-11-29T01:48:48.876Z,18.95
2022-11-29T01:51:16.520Z,21.30
2022-11-29T01:53:43.983Z,18.40
2022-11-29T01:56:14.582Z,20.15
2022-11-29T01:58:45.427Z,19.00
2022-11-29T02:01:14.327Z,21.77
2022-11-29T02:03:41.647Z,18.20
2022-11-29T02:06:09.106Z,18.27
2022-11-29T02:08:41.884Z,19.40
2022-11-29T02:11:24.753Z,19.00
2022-11-29T02:14:33.228Z,18.25
2022-11-29T02:17:22.932Z,20.08
2022-11-29T02:19:53.290Z,19.75
2022-11-29T02:22:37.299Z,22.63
2022-11-29T02:25:29.880Z,19.45
2022-11-29T02:28:25.857Z,21.30
2022-11-29T02:31:22.257Z,19.95
2022-11-29T02:33:57.505Z,20.20
2022-11-29T02:36:45.860Z,21.65
2022-11-29T02:39:44.058Z,22.00
2022-11-29T02:42:27.224Z,20.73
2022-11-29T02:44:54.524Z,22.63
2022-11-29T02:47:38.959Z,22.45
2022-11-29T02:50:42.595Z,21.88
2022-11-29T02:53:33.132Z,23.15
2022-11-29T02:56:23.720Z,20.67
2022-11-29T02:59:01.130Z,21.02
2022-11-29T03:01:48.692Z,20.70
2022-11-29T03:04:28.828Z,21.27
2022-11-29T03:07:03.429Z,20.20
2022-11-29T03:10:08.731Z,21.90
2022-11-29T03:12:47.453Z,21.85
2022-11-29T03:15:34.194Z,23.05
2022-11-29T03:18:31.773Z,21.77
2022-11-29T03:21:09.815Z,23.37
2022-11-29T03:23:47.249Z,22.52
2022-11-29T03:26:23.956Z,20.88
2022-11-29T03:29:08.069Z,21.17
2022-11-29T03:31:45.679Z,19.17
2022-11-29T03:34:46.281Z,19.45
2022-11-29T03:37:21.596Z,18.30
2022-11-29T03:40:10.153Z,17.65
2022-11-29T03:42:51.295Z,18.83
2022-11-29T03:45:28.313Z,17.98
2022-11-29T03:48:05.152Z,17.48
2022-11-29T03:50:43.225Z,18.25
2022-11-29T03:53:35.343Z,18.70
2022-11-29T03:56:22.337Z,18.13
2022-11-29T03:59:13.559Z,19.92
2022-11-29T04:01:59.735Z,20.20
2022-11-29T04:04:51.797Z,19.58
2022-11-29T04:08:02.264Z,19.10
2022-11-29T04:10:43.685Z,18.25
2022-11-29T04:13:22.882Z,17.75
2022-11-29T04:16:08.713Z,20.48
2022-11-29T04:18:39.017Z,20.67
2022-11-29T04:21:47.480Z,23.10
2022-11-29T04:24:52.507Z,23.65
2022-11-29T04:27:29.897Z,24.13
2022-11-29T04:30:27.879Z,26.17
2022-11-29T04:33:27.431Z,24.95
2022-11-29T04:36:26.616Z,23.58
2022-11-29T04:38:56.932Z,23.45
2022-11-29T04:41:48.839Z,23.75
2022-11-29T04:44:34.537Z,23.27
2022-11-29T04:47:28.967Z,24.35
2022-11-29T04:50:02.348Z,23.50
2022-11-29T04:53:04.736Z,23.90
2022-11-29T04:55:51.152Z,23.83
2022-11-29T04:58:46.412Z,22.17
2022-11-29T05:01:13.809Z,22.15
2022-11-29T05:03:59.278Z,21.02
2022-11-29T05:06:57.167Z,21.98
2022-11-29T05:09:54.696Z,21.05
2022-11-29T05:12:47.648Z,21.30
2022-11-29T05:15:30.281Z,20.55
2022-11-29T05:18:25.185Z,22.17
2022-11-29T05:21:21.717Z,20.42
2022-11-29T05:23:57.160Z,20.92
2022-11-29T05:26:31.434Z,22.15
2022-11-29T05:29:04.451Z,22.23
2022-11-29T05:31:37.645Z,20.38
2022-11-29T05:34:35.276Z,19.90
2022-11-29T05:37:11.814Z,20.17
2022-11-29T05:39:49.368Z,22.93
2022-11-29T05:42:36.801Z,20.30
2022-11-29T05:45:25.906Z,19.65
2022-11-29T05:48:24.999Z,18.67
2022-11-29T05:51:10.482Z,19.63
2022-11-29T05:53:40.931Z,19.50
2022-11-29T05:56:17.405Z,16.17
2022-11-29T05:58:50.452Z,17.48
2022-11-29T06:01:29.870Z,18.83
2022-11-29T06:04:14.591Z,19.27
2022-11-29T06:06:55.197Z,15.68
2022-11-29T06:09:30.832Z,16.73
2022-11-29T06:12:06.764Z,15.73
2022-11-29T06:14:57.000Z,17.00
2022-11-29T06:17:52.363Z,17.60
2022-11-29T06:20:54.531Z,17.80
2022-11-29T06:23:58.889Z,16.52
2022-11-29T06:27:02.366Z,18.27
2022-11-29T06:30:09.173Z,19.17
2022-11-29T06:32:54.433Z,18.50
2022-11-29T06:35:36.787Z,20.00
2022-11-29T06:38:14.647Z,19.40
2022-11-29T06:40:42.753Z,19.35
2022-11-29T06:43:10.450Z,13.93
2022-11-29T06:45:39.680Z,11.68
2022-11-29T06:48:09.819Z,10.55
2022-11-29T06:51:07.985Z,10.75
2022-11-29T06:53:55.595Z,12.30
2022-11-29T06:56:46.734Z,11.52
2022-11-29T06:59:32.826Z,10.68
2022-11-29T07:02:31.715Z,12.80
2022-11-29T07:05:17.662Z,11.75
2022-11-29T07:07:47.084Z,14.27
2022-11-29T07:10:19.377Z,14.90
2022-11-29T07:12:48.861Z,14.80
2022-11-29T07:15:18.789Z,14.15
2022-11-29T07:18:04.004Z,13.07
2022-11-29T07:20:34.115Z,13.82
2022-11-29T07:23:20.193Z,13.10
2022-11-29T07:25:54.631Z,13.98
2022-11-29T07:28:53.816Z,14.10
2022-11-29T07:31:37.292Z,13.95
2022-11-29T07:34:23.426Z,14.75
2022-11-29T07:37:02.722Z,15.75
2022-11-29T07:39:55.752Z,16.98
2022-11-29T07:42:22.977Z,15.07
2022-11-29T07:45:27.802Z,16.83
2022-11-29T07:47:55.320Z,15.23
2022-11-29T07:50:22.712Z,17.75
2022-11-29T07:52:50.179Z,15.95
2022-11-29T07:55:20.184Z,17.08
2022-11-29T07:57:48.741Z,15.55
2022-11-29T08:00:18.165Z,17.10
2022-11-29T08:02:49.120Z,14.85
2022-11-29T08:05:17.009Z,16.73
2022-11-29T08:07:44.941Z,18.42
2022-11-29T08:10:15.435Z,17.15
2022-11-29T08:12:45.380Z,18.00
2022-11-29T08:15:13.596Z,18.27
2022-11-29T08:17:41.058Z,17.13
2022-11-29T08:20:09.353Z,16.88
2022-11-29T08:22:37.156Z,17.65
2022-11-29T08:25:06.125Z,18.73
2022-11-29T08:27:34.360Z,18.20
2022-11-29T08:30:01.673Z,16.98
2022-11-29T08:32:29.156Z,16.38
2022-11-29T08:34:56.496Z,16.23
2022-11-29T08:37:23.864Z,18.08
2022-11-29T08:39:51.164Z,19.00
2022-11-29T08:42:18.375Z,19.35
2022-11-29T08:44:45.966Z,18.40
2022-11-29T08:47:32.297Z,16.92
2022-11-29T08:50:02.348Z,17.63
2022-11-29T08:52:50.581Z,17.77
2022-11-29T08:55:22.755Z,18.83
2022-11-29T08:57:51.155Z,19.27
2022-11-29T09:00:19.399Z,18.15
2022-11-29T09:02:46.993Z,18.45
2022-11-29T09:05:15.124Z,18.40
2022-11-29T09:07:42.527Z,17.95
2022-11-29T09:10:11.273Z,18.00
2022-11-29T09:12:40.401Z,18.40
2022-11-29T09:15:10.010Z,18.55
2022-11-29T09:17:37.707Z,17.77
2022-11-29T09:20:06.030Z,17.63
2022-11-29T09:22:33.435Z,16.05
2022-11-29T09:25:00.693Z,16.92
2022-11-29T09:27:27.968Z,15.30
2022-11-29T09:29:55.194Z,16.95
2022-11-29T09:32:22.506Z,16.50
2022-11-29T09:34:49.897Z,17.48
2022-11-29T09:37:17.199Z,15.23
2022-11-29T09:39:44.980Z,13.45
2022-11-29T09:42:40.516Z,14.60
2022-11-29T09:45:10.884Z,14.80
2022-11-29T09:47:40.875Z,14.48
2022-11-29T09:50:22.003Z,14.25
2022-11-29T09:52:57.069Z,12.52
2022-11-29T09:55:45.964Z,12.70
2022-11-29T09:58:21.503Z,12.80
2022-11-29T10:00:52.062Z,13.38
2022-11-29T10:03:36.328Z,11.10
2022-11-29T10:06:27.862Z,10.18
2022-11-29T10:09:08.907Z,10.25
2022-11-29T10:12:14.520Z,11.77
2022-11-29T10:15:13.752Z,10.48
2022-11-29T10:17:47.495Z,9.80
2022-11-29T10:20:24.347Z,9.77
2022-11-29T10:23:21.727Z,11.27
2022-11-29T10:25:52.780Z,9.73
2022-11-29T10:28:31.752Z,12.38
2022-11-29T10:31:08.322Z,10.52
2022-11-29T10:33:40.154Z,9.70
2022-11-29T10:36:34.385Z,9.82
2022-11-29T10:39:23.128Z,10.25
2022-11-29T10:41:55.474Z,10.45
2022-11-29T10:44:24.177Z,10.88
2022-11-29T10:46:53.173Z,11.23
2022-11-29T10:49:24.895Z,11.60
2022-11-29T10:51:52.148Z,13.55
2022-11-29T10:54:22.400Z,12.32
2022-11-29T10:56:50.869Z,12.50
2022-11-29T10:59:24.936Z,12.45
2022-11-29T11:01:52.736Z,13.75
2022-11-29T11:04:35.449Z,13.23
2022-11-29T11:07:06.084Z,14.40
2022-11-29T11:09:42.192Z,15.75
2022-11-29T11:12:15.276Z,18.65
2022-11-29T11:14:44.185Z,17.08
2022-11-29T11:17:26.037Z,16.40
2022-11-29T11:20:19.396Z,17.35
2022-11-29T11:23:01.308Z,15.48
2022-11-29T11:25:39.671Z,15.32
2022-11-29T11:28:20.400Z,16.65
2022-11-29T11:31:01.242Z,19.33
2022-11-29T11:33:34.856Z,16.25
2022-11-29T11:36:03.790Z,16.67
2022-11-29T11:38:31.616Z,17.02
2022-11-29T11:41:47.560Z,18.67
2022-11-29T11:44:47.613Z,20.85
2022-11-29T11:47:30.447Z,17.48
2022-11-29T11:50:00.557Z,20.70
2022-11-29T11:52:46.101Z,18.40
2022-11-29T11:55:34.399Z,19.35
2022-11-29T11:58:10.692Z,22.08
2022-11-29T12:03:37.193Z,20.48
2022-11-29T12:06:17.161Z,20.42
2022-11-29T12:08:48.323Z,20.25
2022-11-29T12:11:18.280Z,18.98
2022-11-29T12:13:52.568Z,19.58
2022-11-29T12:16:33.102Z,20.13
2022-11-29T12:19:37.588Z,19.55
2022-11-29T12:22:13.668Z,19.77
2022-11-29T12:24:54.942Z,20.52
2022-11-29T12:27:22.356Z,17.42
2022-11-29T12:29:49.617Z,19.27
2022-11-29T12:32:58.082Z,18.05
2022-11-29T12:35:37.133Z,19.75
2022-11-29T12:38:35.825Z,17.25
2022-11-29T12:41:46.277Z,18.98
2022-11-29T12:44:44.891Z,19.48
2022-11-29T12:47:35.722Z,17.20
2022-11-29T12:50:18.925Z,17.88
2022-11-29T12:52:46.258Z,17.27
2022-11-29T12:55:24.606Z,17.58
2022-11-29T12:58:12.171Z,17.20
2022-11-29T13:01:12.521Z,18.10
2022-11-29T13:04:07.699Z,17.95
2022-11-29T13:06:59.060Z,19.48
2022-11-29T13:09:59.963Z,19.33
2022-11-29T13:12:43.727Z,18.25
2022-11-29T13:15:17.831Z,20.23
2022-11-29T13:18:03.589Z,18.98
2022-11-29T13:20:41.896Z,17.65
2022-11-29T13:23:46.011Z,17.90
2022-11-29T13:26:17.243Z,17.90
2022-11-29T13:28:46.527Z,16.40
2022-11-29T13:31:20.131Z,16.33
2022-11-29T13:34:09.844Z,17.58
2022-11-29T13:37:08.075Z,16.20
2022-11-29T13:39:55.424Z,14.35
2022-11-29T13:42:47.421Z,14.48
2022-11-29T13:45:31.344Z,14.38
2022-11-29T13:48:00.655Z,13.35
2022-11-29T13:50:42.464Z,13.15
2022-11-29T13:53:17.725Z,14.43
2022-11-29T13:56:02.011Z,12.80
2022-11-29T13:58:29.267Z,13.98
2022-11-29T14:01:15.038Z,12.93
2022-11-29T14:03:59.122Z,13.32
2022-11-29T14:06:37.716Z,11.88
2022-11-29T14:09:33.618Z,11.43
2022-11-29T14:12:06.335Z,12.93
2022-11-29T14:14:49.481Z,11.68
2022-11-29T14:17:48.918Z,12.02
2022-11-29T14:20:25.404Z,12.05
2022-11-29T14:23:04.910Z,11.75
2022-11-29T14:25:52.452Z,11.77
2022-11-29T14:30:55.461Z,11.48
2022-11-29T14:33:36.072Z,13.13
2022-11-29T14:36:15.275Z,11.73
2022-11-29T14:38:42.561Z,12.50
2022-11-29T14:41:47.724Z,13.20
2022-11-29T14:44:25.828Z,12.75
2022-11-29T14:47:20.931Z,11.73
2022-11-29T14:49:48.338Z,11.82
2022-11-29T14:52:20.127Z,14.15
2022-11-29T14:55:28.021Z,11.75
2022-11-29T14:58:01.120Z,10.73
2022-11-29T15:00:42.061Z,10.43
2022-11-29T15:03:26.705Z,9.88
2022-11-29T15:06:00.328Z,10.00
2022-11-29T15:08:57.371Z,10.07
2022-11-29T15:11:44.316Z,9.55
2022-11-29T15:14:17.225Z,11.70
2022-11-29T15:17:15.438Z,11.32
2022-11-29T15:19:51.376Z,11.23
2022-11-29T15:22:22.437Z,12.13
2022-11-29T15:25:11.200Z,10.35
2022-11-29T15:27:52.376Z,10.48
2022-11-29T15:30:35.351Z,12.35
2022-11-29T15:33:18.175Z,12.32
2022-11-29T15:35:57.350Z,11.48
2022-11-29T15:38:24.874Z,11.63
2022-11-29T15:40:54.748Z,11.45
2022-11-29T15:43:33.697Z,11.20
2022-11-29T15:46:01.238Z,11.75
2022-11-29T15:48:32.528Z,12.88
2022-11-29T15:51:15.081Z,12.85
2022-11-29T15:53:50.373Z,11.77
2022-11-29T15:56:28.481Z,12.82
2022-11-29T15:59:01.068Z,12.40
2022-11-29T16:01:28.530Z,12.45
2022-11-29T16:03:58.306Z,12.25
2022-11-29T16:06:43.009Z,13.63
2022-11-29T16:09:14.214Z,11.73
2022-11-29T16:11:41.985Z,14.30
2022-11-29T16:14:28.155Z,13.65
2022-11-29T16:16:58.113Z,13.70
2022-11-29T16:19:28.600Z,12.80
2022-11-29T16:22:16.059Z,14.85
2022-11-29T16:25:06.843Z,15.73
2022-11-29T16:27:36.132Z,15.40
2022-11-29T16:30:05.408Z,15.05
2022-11-29T16:32:35.541Z,15.02
2022-11-29T16:35:22.263Z,15.40
2022-11-29T16:37:49.866Z,14.20
2022-11-29T16:40:27.950Z,15.57
2022-11-29T16:43:04.531Z,15.98
2022-11-29T16:45:41.028Z,16.35
2022-11-29T16:48:30.886Z,16.83
2022-11-29T16:51:13.672Z,15.93
2022-11-29T16:53:43.382Z,16.55
2022-11-29T16:56:12.268Z,16.27
2022-11-29T16:58:43.223Z,17.67
2022-11-29T17:01:30.421Z,17.95
2022-11-29T17:03:59.918Z,17.45
2022-11-29T17:06:28.673Z,16.30
2022-11-29T17:08:58.245Z,17.65
2022-11-29T17:11:26.266Z,17.30
2022-11-29T17:13:53.832Z,18.50
2022-11-29T17:16:23.682Z,19.00
2022-11-29T17:18:52.795Z,18.10
2022-11-29T17:21:26.975Z,18.15
2022-11-29T17:23:54.472Z,19.58
2022-11-29T17:26:22.790Z,19.08
2022-11-29T17:28:51.554Z,19.30
2022-11-29T17:31:21.328Z,18.95
2022-11-29T17:33:49.346Z,19.88
2022-11-29T17:36:19.627Z,18.10
2022-11-29T17:38:47.606Z,19.17
2022-11-29T17:41:23.864Z,18.92
2022-11-29T17:43:52.627Z,20.65
2022-11-29T17:46:26.190Z,21.45
2022-11-29T17:48:53.598Z,19.80
2022-11-29T17:51:50.735Z,19.17
2022-11-29T17:54:10.564Z,20.10
2022-11-29T17:56:37.915Z,18.45
2022-11-29T17:59:05.799Z,20.65
2022-11-29T18:01:34.859Z,20.02
2022-11-29T18:04:04.510Z,19.70
2022-11-29T18:06:36.076Z,20.55
2022-11-29T18:09:05.108Z,20.10
2022-11-29T18:11:47.723Z,19.92
2022-11-29T18:14:18.700Z,19.42
2022-11-29T18:16:46.197Z,20.25
2022-11-29T18:19:19.628Z,18.52
2022-11-29T18:21:47.425Z,20.10
2022-11-29T18:24:15.084Z,21.17
2022-11-29T18:26:42.994Z,20.80
2022-11-29T18:29:10.648Z,24.58
2022-11-29T18:31:40.948Z,24.02
2022-11-29T18:34:09.969Z,23.80
2022-11-29T18:36:43.417Z,24.67
2022-11-29T18:39:16.682Z,24.15
2022-11-29T18:41:48.746Z,25.50
2022-11-29T18:44:18.963Z,25.05
2022-11-29T18:46:46.651Z,23.13
2022-11-29T18:49:16.422Z,24.00
2022-11-29T18:51:45.379Z,25.48
2022-11-29T18:54:14.406Z,23.17
2022-11-29T18:56:43.333Z,24.67
2022-11-29T18:59:13.590Z,24.42
2022-11-29T19:01:42.732Z,26.23
2022-11-29T19:04:13.107Z,24.30
2022-11-29T19:06:41.316Z,26.77
2022-11-29T19:09:12.929Z,24.35
2022-11-29T19:11:40.820Z,26.70
2022-11-29T19:14:11.559Z,26.00
2022-11-29T19:16:41.274Z,25.65
2022-11-29T19:19:08.602Z,24.73
2022-11-29T19:21:35.949Z,26.98
2022-11-29T19:24:06.795Z,25.02
2022-11-29T19:26:34.833Z,24.10
2022-11-29T19:29:02.407Z,23.52
2022-11-29T19:31:29.976Z,23.20
2022-11-29T19:33:57.779Z,24.92
2022-11-29T19:36:30.362Z,23.15
2022-11-29T19:39:02.116Z,24.45
2022-11-29T19:41:34.324Z,25.00
2022-11-29T19:44:04.400Z,24.10
2022-11-29T19:46:36.929Z,26.15
2022-11-29T19:49:06.059Z,26.23
2022-11-29T19:51:33.760Z,28.65
2022-11-29T19:54:04.068Z,27.65
2022-11-29T19:56:32.263Z,26.27
2022-11-29T19:58:59.873Z,29.17
2022-11-29T20:01:40.817Z,25.95
2022-11-29T20:04:11.025Z,26.25
2022-11-29T20:06:38.889Z,27.33
2022-11-29T20:09:06.632Z,26.08
2022-11-29T20:11:34.169Z,26.23
2022-11-29T20:14:03.640Z,24.50
2022-11-29T20:16:31.935Z,26.10
2022-11-29T20:18:59.480Z,24.35
2022-11-29T20:21:29.496Z,27.25
2022-11-29T20:24:03.181Z,25.10
2022-11-29T20:26:32.951Z,24.85
2022-11-29T20:29:02.091Z,24.80
2022-11-29T20:31:33.227Z,24.95
2022-11-29T20:34:00.860Z,24.08
2022-11-29T20:36:30.936Z,24.02
2022-11-29T20:39:29.269Z,24.55
2022-11-29T20:45:14.114Z,22.80
2022-11-29T20:48:00.806Z,25.30
2022-11-29T20:50:30.515Z,24.52
2022-11-29T20:53:22.120Z,25.17
2022-11-29T20:55:49.642Z,26.17
2022-11-29T20:58:18.195Z,25.88
2022-11-29T21:00:46.365Z,25.27
2022-11-29T21:03:15.607Z,24.85
2022-11-29T21:05:43.125Z,25.90
2022-11-29T21:08:10.455Z,24.60
2022-11-29T21:10:37.708Z,25.00
2022-11-29T21:13:05.283Z,24.85
2022-11-29T21:15:32.917Z,23.52
2022-11-29T21:18:00.390Z,26.92
2022-11-29T21:20:27.989Z,23.38
2022-11-29T21:23:13.981Z,26.50
2022-11-29T21:26:02.396Z,26.05
2022-11-29T21:30:59.573Z,23.60
2022-11-29T21:33:27.340Z,26.40
2022-11-29T21:35:57.972Z,25.42
2022-11-29T21:38:26.820Z,24.45
2022-11-29T21:40:54.047Z,23.63
2022-11-29T21:43:32.704Z,22.88
2022-11-29T21:46:08.727Z,22.42
2022-11-29T21:48:36.137Z,22.67
2022-11-29T21:51:08.371Z,25.05
2022-11-29T21:53:36.943Z,23.17
2022-11-29T21:56:09.847Z,21.77
2022-11-29T21:58:39.047Z,24.23
2022-11-29T22:01:24.511Z,26.08
2022-11-29T22:03:53.728Z,24.80
2022-11-29T22:06:24.067Z,26.60
2022-11-29T22:08:51.553Z,27.65
2022-11-29T22:11:30.775Z,25.38
2022-11-29T22:14:15.567Z,27.10
2022-11-29T22:16:54.174Z,26.73
2022-11-29T22:19:25.400Z,26.45
2022-11-29T22:21:55.731Z,24.75
2022-11-29T22:24:25.245Z,26.50
2022-11-29T22:26:53.488Z,26.20
2022-11-29T22:29:21.700Z,25.67
2022-11-29T22:31:50.760Z,27.08
2022-11-29T22:34:18.056Z,28.92
2022-11-29T22:36:45.609Z,29.02
2022-11-29T22:39:13.388Z,29.02
2022-11-29T22:41:41.224Z,26.70
2022-11-29T22:44:09.025Z,27.75
2022-11-29T22:46:40.528Z,29.08
2022-11-29T22:49:08.285Z,32.55
2022-11-29T22:51:37.154Z,28.02
2022-11-29T22:54:11.372Z,31.13
2022-11-29T22:56:40.661Z,28.38
2022-11-29T22:59:08.123Z,27.80
2022-11-29T23:01:38.402Z,30.35
2022-11-29T23:04:08.047Z,30.55
2022-11-29T23:06:37.912Z,28.75
2022-11-29T23:09:07.845Z,28.63
2022-11-29T23:11:35.230Z,28.67
2022-11-29T23:14:02.593Z,30.30
2022-11-29T23:16:31.666Z,27.73
2022-11-29T23:19:00.110Z,28.38
2022-11-29T23:21:32.041Z,26.95
2022-11-29T23:24:00.906Z,30.52
2022-11-29T23:26:33.862Z,30.85
2022-11-29T23:29:01.088Z,28.27
2022-11-29T23:31:28.417Z,30.90
2022-11-29T23:33:55.811Z,31.38
2022-11-29T23:36:23.133Z,28.58
2022-11-29T23:38:50.422Z,29.40
2022-11-29T23:41:18.371Z,29.83
2022-11-29T23:43:45.763Z,31.05
2022-11-29T23:46:19.261Z,30.27
2022-11-29T23:48:47.115Z,29.20
2022-11-29T23:51:15.430Z,28.80
2022-11-29T23:53:43.344Z,29.83
2022-11-29T23:56:16.135Z,28.05
2022-11-29T23:58:44.264Z,30.30
